Time,TemperatureF,DewpointF,PressureIn,WindDirection,WindDirectionDegrees,WindSpeedMPH,WindSpeedGustMPH,Humidity,HourlyPrecipIn,Conditions,Clouds,dailyrainin,SoftwareType,DateUTC
2013-03-08 00:00:00,41.1,38.0,29.95,NW,310,0.0,3.0,88,0.00,,,0.00,weatherlink.com 1.10,2013-03-08 08:00:00,
2013-03-08 00:15:00,41.1,38.0,29.95,NW,310,0.0,2.0,88,0.00,,,0.00,weatherlink.com 1.10,2013-03-08 08:15:00,
2013-03-08 00:31:00,41.1,38.0,29.95,NW,310,0.0,0.0,87,0.00,,,0.00,weatherlink.com 1.10,2013-03-08 08:31:00,
2013-03-08 00:46:00,40.6,37.0,29.95,NW,311,0.0,0.0,87,0.00,,,0.00,weatherlink.com 1.10,2013-03-08 08:46:00,
2013-03-08 01:01:00,40.9,37.0,29.95,NW,311,0.0,2.0,87,0.00,,,0.00,weatherlink.com 1.10,2013-03-08 09:01:00,
2013-03-08 01:16:00,40.9,37.0,29.95,NNW,329,0.0,3.0,87,0.00,,,0.00,weatherlink.com 1.10,2013-03-08 09:16:00,
2013-03-08 01:31:00,40.3,37.0,29.96,NNW,329,0.0,0.0,87,0.00,,,0.00,weatherlink.com 1.10,2013-03-08 09:31:00,
2013-03-08 01:46:00,40.2,37.0,29.96,NW,311,0.0,4.0,88,0.00,,,0.00,weatherlink.com 1.10,2013-03-08 09:46:00,
2013-03-08 02:01:00,40.2,37.0,29.95,NE,54,0.0,4.0,87,0.00,,,0.00,weatherlink.com 1.10,2013-03-08 10:01:00,
2013-03-08 02:16:00,40.2,37.0,29.95,NNW,329,4.0,10.0,87,0.00,,,0.00,weatherlink.com 1.10,2013-03-08 10:16:00,
2013-03-08 02:31:00,40.2,36.0,29.95,NNW,340,0.0,1.0,86,0.00,,,0.00,weatherlink.com 1.10,2013-03-08 10:31:00,
2013-03-08 02:46:00,39.6,36.0,29.94,NNW,338,0.0,2.0,88,0.00,,,0.00,weatherlink.com 1.10,2013-03-08 10:46:00,
2013-03-08 03:01:00,40.2,37.0,29.94,NW,319,0.0,5.0,88,0.00,,,0.00,weatherlink.com 1.10,2013-03-08 11:01:00,
2013-03-08 03:16:00,39.2,36.0,29.93,NW,319,2.0,2.0,89,0.00,,,0.00,weatherlink.com 1.10,2013-03-08 11:16:00,
2013-03-08 03:31:00,39.3,36.0,29.93,NW,319,1.0,3.0,89,0.00,,,0.00,weatherlink.com 1.10,2013-03-08 11:31:00,
2013-03-08 03:46:00,41.3,38.0,29.93,NNW,327,4.0,9.0,89,0.00,,,0.00,weatherlink.com 1.10,2013-03-08 11:46:00,
2013-03-08 04:01:00,42.8,38.0,29.93,NW,306,3.0,13.0,84,0.00,,,0.00,weatherlink.com 1.10,2013-03-08 12:01:00,
2013-03-08 04:16:00,41.9,38.0,29.93,NNW,333,0.0,5.0,85,0.00,,,0.00,weatherlink.com 1.10,2013-03-08 12:16:00,
2013-03-08 04:31:00,41.3,38.0,29.93,NW,317,0.0,5.0,87,0.00,,,0.00,weatherlink.com 1.10,2013-03-08 12:31:00,
2013-03-08 04:47:00,41.6,38.0,29.93,NW,316,3.0,8.0,86,0.00,,,0.00,weatherlink.com 1.10,2013-03-08 12:47:00,
2013-03-08 05:01:00,41.5,38.0,29.94,NNW,338,0.0,3.0,86,0.00,,,0.00,weatherlink.com 1.10,2013-03-08 13:01:00,
2013-03-08 05:16:00,41.5,38.0,29.94,NW,319,0.0,5.0,86,0.00,,,0.00,weatherlink.com 1.10,2013-03-08 13:16:00,
2013-03-08 05:31:00,40.9,37.0,29.94,NNW,330,0.0,3.0,87,0.00,,,0.00,weatherlink.com 1.10,2013-03-08 13:31:00,
2013-03-08 05:46:00,40.6,37.0,29.95,WNW,296,0.0,2.0,87,0.00,,,0.00,weatherlink.com 1.10,2013-03-08 13:46:00,
2013-03-08 06:01:00,41.1,38.0,29.94,North,355,0.0,6.0,89,0.00,,,0.00,weatherlink.com 1.10,2013-03-08 14:01:00,
2013-03-08 06:16:00,41.2,38.0,29.95,NNW,329,0.0,5.0,89,0.00,,,0.00,weatherlink.com 1.10,2013-03-08 14:16:00,
2013-03-08 06:31:00,41.1,38.0,29.95,NW,318,0.0,3.0,89,0.00,,,0.00,weatherlink.com 1.10,2013-03-08 14:31:00,
2013-03-08 06:46:00,40.8,38.0,29.95,NW,312,0.0,4.0,89,0.00,,,0.00,weatherlink.com 1.10,2013-03-08 14:46:00,
2013-03-08 07:01:00,41.1,38.0,29.96,NNW,335,1.0,5.0,90,0.00,,,0.00,weatherlink.com 1.10,2013-03-08 15:01:00,
2013-03-08 07:16:00,41.2,38.0,29.96,WNW,301,0.0,2.0,89,0.00,,,0.00,weatherlink.com 1.10,2013-03-08 15:16:00,
2013-03-08 07:31:00,42.1,39.0,29.96,NW,321,2.0,6.0,88,0.00,,,0.00,weatherlink.com 1.10,2013-03-08 15:31:00,
2013-03-08 07:46:00,43.3,39.0,29.96,NW,321,0.0,3.0,86,0.00,,,0.00,weatherlink.com 1.10,2013-03-08 15:46:00,
2013-03-08 08:01:00,44.5,40.0,29.97,NNW,328,0.0,1.0,84,0.00,,,0.00,weatherlink.com 1.10,2013-03-08 16:01:00,
2013-03-08 08:16:00,46.2,41.0,29.97,NNW,328,0.0,1.0,82,0.00,,,0.00,weatherlink.com 1.10,2013-03-08 16:16:00,
2013-03-08 08:31:00,47.6,42.0,29.97,NW,317,0.0,5.0,81,0.00,,,0.00,weatherlink.com 1.10,2013-03-08 16:31:00,
2013-03-08 08:46:00,48.8,43.0,29.97,NW,322,3.0,8.0,80,0.00,,,0.00,weatherlink.com 1.10,2013-03-08 16:46:00,
2013-03-08 09:02:00,49.8,43.0,29.97,NW,325,5.0,8.0,77,0.00,,,0.00,weatherlink.com 1.10,2013-03-08 17:02:00,
2013-03-08 09:17:00,50.8,43.0,29.97,NW,318,7.0,10.0,75,0.00,,,0.00,weatherlink.com 1.10,2013-03-08 17:17:00,
2013-03-08 09:32:00,51.6,44.0,29.97,NW,319,2.0,12.0,75,0.00,,,0.00,weatherlink.com 1.10,2013-03-08 17:32:00,
2013-03-08 09:47:00,52.0,44.0,29.97,NW,304,3.0,13.0,75,0.00,,,0.00,weatherlink.com 1.10,2013-03-08 17:47:00,
2013-03-08 10:02:00,52.8,45.0,29.97,NW,320,2.0,12.0,74,0.00,,,0.00,weatherlink.com 1.10,2013-03-08 18:02:00,
2013-03-08 10:17:00,52.9,45.0,29.97,NNW,343,11.0,14.0,74,0.00,,,0.00,weatherlink.com 1.10,2013-03-08 18:17:00,
2013-03-08 10:32:00,53.5,45.0,29.98,NW,315,9.0,13.0,73,0.00,,,0.00,weatherlink.com 1.10,2013-03-08 18:32:00,
2013-03-08 10:47:00,54.1,46.0,29.98,NW,308,8.0,14.0,73,0.00,,,0.00,weatherlink.com 1.10,2013-03-08 18:47:00,
2013-03-08 11:17:00,55.1,47.0,29.98,NW,321,4.0,13.0,73,0.00,,,0.00,weatherlink.com 1.10,2013-03-08 19:17:00,
2013-03-08 11:32:00,55.0,46.0,29.98,NW,307,8.0,14.0,73,0.00,,,0.00,weatherlink.com 1.10,2013-03-08 19:32:00,
2013-03-08 11:47:00,55.3,46.0,29.98,NW,315,5.0,16.0,70,0.00,,,0.00,weatherlink.com 1.10,2013-03-08 19:47:00,
2013-03-08 12:02:00,55.3,47.0,29.98,NW,306,6.0,12.0,73,0.00,,,0.00,weatherlink.com 1.10,2013-03-08 20:02:00,
2013-03-08 12:17:00,55.1,47.0,29.98,WNW,284,3.0,16.0,74,0.00,,,0.00,weatherlink.com 1.10,2013-03-08 20:17:00,
2013-03-08 12:32:00,55.3,47.0,29.98,NW,308,8.0,20.0,73,0.00,,,0.00,weatherlink.com 1.10,2013-03-08 20:32:00,
2013-03-08 12:47:00,55.1,47.0,29.97,WNW,293,4.0,14.0,74,0.00,,,0.00,weatherlink.com 1.10,2013-03-08 20:47:00,
2013-03-08 13:02:00,55.3,47.0,29.97,WNW,296,7.0,13.0,74,0.00,,,0.00,weatherlink.com 1.10,2013-03-08 21:02:00,
2013-03-08 13:17:00,55.0,46.0,29.97,SW,236,6.0,20.0,73,0.00,,,0.00,weatherlink.com 1.10,2013-03-08 21:17:00,
2013-03-08 13:32:00,56.0,47.0,29.97,NW,306,5.0,14.0,72,0.00,,,0.00,weatherlink.com 1.10,2013-03-08 21:32:00,
2013-03-08 13:47:00,55.3,46.0,29.96,NW,316,4.0,16.0,72,0.00,,,0.00,weatherlink.com 1.10,2013-03-08 21:47:00,
2013-03-08 14:02:00,55.4,46.0,29.96,NNW,335,9.0,19.0,71,0.00,,,0.00,weatherlink.com 1.10,2013-03-08 22:02:00,
2013-03-08 14:17:00,55.7,47.0,29.97,WNW,302,5.0,15.0,72,0.00,,,0.00,weatherlink.com 1.10,2013-03-08 22:17:00,
2013-03-08 14:32:00,55.0,46.0,29.98,NW,309,6.0,19.0,73,0.00,,,0.00,weatherlink.com 1.10,2013-03-08 22:32:00,
2013-03-08 14:47:00,54.7,45.0,29.98,WNW,296,5.0,21.0,70,0.00,,,0.00,weatherlink.com 1.10,2013-03-08 22:47:00,
2013-03-08 15:02:00,54.8,46.0,29.98,NW,304,5.0,15.0,71,0.00,,,0.00,weatherlink.com 1.10,2013-03-08 23:02:00,
2013-03-08 15:17:00,52.9,44.0,29.98,NNW,328,11.0,22.0,73,0.00,,,0.00,weatherlink.com 1.10,2013-03-08 23:17:00,
2013-03-08 15:32:00,51.7,45.0,29.99,WNW,302,10.0,25.0,77,0.00,,,0.00,weatherlink.com 1.10,2013-03-08 23:32:00,
2013-03-08 15:47:00,51.9,44.0,29.99,North,5,10.0,22.0,74,0.00,,,0.00,weatherlink.com 1.10,2013-03-08 23:47:00,
2013-03-08 16:02:00,52.5,44.0,29.99,WNW,302,6.0,19.0,73,0.00,,,0.00,weatherlink.com 1.10,2013-03-09 00:02:00,
2013-03-08 16:17:00,53.1,45.0,29.99,NW,317,12.0,13.0,73,0.00,,,0.00,weatherlink.com 1.10,2013-03-09 00:17:00,
2013-03-08 16:32:00,52.9,44.0,29.99,NW,320,6.0,16.0,73,0.00,,,0.00,weatherlink.com 1.10,2013-03-09 00:32:00,
2013-03-08 16:47:00,52.2,45.0,29.99,WNW,297,11.0,14.0,75,0.00,,,0.00,weatherlink.com 1.10,2013-03-09 00:47:00,
2013-03-08 17:02:00,51.4,44.0,30.00,NW,317,6.0,17.0,76,0.00,,,0.00,weatherlink.com 1.10,2013-03-09 01:02:00,
2013-03-08 17:17:00,50.5,44.0,30.00,NNW,327,7.0,10.0,78,0.00,,,0.00,weatherlink.com 1.10,2013-03-09 01:17:00,
2013-03-08 17:32:00,49.9,44.0,30.01,WNW,300,4.0,12.0,79,0.00,,,0.00,weatherlink.com 1.10,2013-03-09 01:32:00,
2013-03-08 17:47:00,49.2,43.0,30.02,WNW,288,6.0,12.0,80,0.00,,,0.00,weatherlink.com 1.10,2013-03-09 01:47:00,
2013-03-08 18:02:00,48.8,43.0,30.03,NW,314,6.0,8.0,81,0.00,,,0.00,weatherlink.com 1.10,2013-03-09 02:02:00,
2013-03-08 18:17:00,48.2,43.0,30.04,NW,314,4.0,7.0,83,0.00,,,0.00,weatherlink.com 1.10,2013-03-09 02:17:00,
2013-03-08 18:32:00,47.7,43.0,30.05,NW,320,4.0,11.0,84,0.00,,,0.00,weatherlink.com 1.10,2013-03-09 02:32:00,
2013-03-08 18:48:00,47.7,43.0,30.05,NW,323,6.0,12.0,84,0.00,,,0.00,weatherlink.com 1.10,2013-03-09 02:48:00,
2013-03-08 19:03:00,47.7,43.0,30.06,NW,321,13.0,17.0,84,0.00,,,0.00,weatherlink.com 1.10,2013-03-09 03:03:00,
2013-03-08 19:18:00,47.9,43.0,30.06,NW,315,9.0,15.0,84,0.00,,,0.00,weatherlink.com 1.10,2013-03-09 03:18:00,
2013-03-08 19:33:00,48.2,44.0,30.07,NW,325,5.0,13.0,84,0.00,,,0.00,weatherlink.com 1.10,2013-03-09 03:33:00,
2013-03-08 19:48:00,48.5,44.0,30.07,NNW,342,5.0,11.0,85,0.00,,,0.00,weatherlink.com 1.10,2013-03-09 03:48:00,
2013-03-08 20:03:00,48.3,44.0,30.08,NW,309,8.0,12.0,84,0.00,,,0.00,weatherlink.com 1.10,2013-03-09 04:03:00,
2013-03-08 20:18:00,48.0,43.0,30.07,NW,317,7.0,14.0,84,0.00,,,0.00,weatherlink.com 1.10,2013-03-09 04:18:00,
2013-03-08 20:33:00,47.7,43.0,30.08,NNW,344,5.0,12.0,85,0.00,,,0.00,weatherlink.com 1.10,2013-03-09 04:33:00,
2013-03-08 20:48:00,47.6,43.0,30.09,NNW,336,6.0,13.0,84,0.00,,,0.00,weatherlink.com 1.10,2013-03-09 04:48:00,
2013-03-08 21:03:00,47.4,43.0,30.09,NW,325,6.0,14.0,85,0.00,,,0.00,weatherlink.com 1.10,2013-03-09 05:03:00,
2013-03-08 21:18:00,47.0,43.0,30.10,NNW,340,8.0,11.0,86,0.00,,,0.00,weatherlink.com 1.10,2013-03-09 05:18:00,
2013-03-08 21:33:00,46.8,43.0,30.10,NW,312,5.0,11.0,87,0.00,,,0.00,weatherlink.com 1.10,2013-03-09 05:33:00,
2013-03-08 21:48:00,46.7,43.0,30.11,North,350,6.0,10.0,87,0.00,,,0.00,weatherlink.com 1.10,2013-03-09 05:48:00,
2013-03-08 22:03:00,46.5,43.0,30.11,NNW,329,5.0,11.0,87,0.00,,,0.00,weatherlink.com 1.10,2013-03-09 06:03:00,
2013-03-08 22:18:00,46.4,43.0,30.12,NNW,336,0.0,9.0,86,0.00,,,0.00,weatherlink.com 1.10,2013-03-09 06:18:00,
2013-03-08 22:33:00,46.1,42.0,30.11,NW,319,3.0,7.0,85,0.00,,,0.00,weatherlink.com 1.10,2013-03-09 06:33:00,
2013-03-08 22:48:00,46.4,42.0,30.12,NNW,345,2.0,7.0,83,0.00,,,0.00,weatherlink.com 1.10,2013-03-09 06:48:00,
2013-03-08 23:03:00,46.3,41.0,30.12,ENE,72,4.0,9.0,81,0.00,,,0.00,weatherlink.com 1.10,2013-03-09 07:03:00,
2013-03-08 23:18:00,44.9,39.0,30.13,NE,42,0.0,3.0,81,0.00,,,0.00,weatherlink.com 1.10,2013-03-09 07:18:00,
2013-03-08 23:33:00,43.3,39.0,30.13,NE,42,1.0,4.0,85,0.00,,,0.00,weatherlink.com 1.10,2013-03-09 07:33:00,
2013-03-08 23:48:00,43.7,39.0,30.13,North,360,0.0,3.0,83,0.00,,,0.00,weatherlink.com 1.10,2013-03-09 07:48:00,